sensor_id;sensor_type;location;lat;lon;timestamp;P1;durP1;ratioP1;P2;durP2;ratioP2
16890;SDS011;8562;52.246;20.966;2023-08-31T00:01:29;6.93;;;4.57;;
16890;SDS011;8562;52.246;20.966;2023-08-31T00:03:54;6.47;;;5.50;;
16890;SDS011;8562;52.246;20.966;2023-08-31T00:06:20;7.50;;;4.47;;
16890;SDS011;8562;52.246;20.966;2023-08-31T00:08:47;5.70;;;4.43;;
16890;SDS011;8562;52.246;20.966;2023-08-31T00:11:12;6.37;;;5.00;;
16890;SDS011;8562;52.246;20.966;2023-08-31T00:13:37;6.63;;;5.17;;
16890;SDS011;8562;52.246;20.966;2023-08-31T00:16:03;6.70;;;4.93;;
16890;SDS011;8562;52.246;20.966;2023-08-31T00:18:30;5.83;;;3.90;;
16890;SDS011;8562;52.246;20.966;2023-08-31T00:20:55;7.00;;;5.10;;
16890;SDS011;8562;52.246;20.966;2023-08-31T00:23:21;5.43;;;4.30;;
16890;SDS011;8562;52.246;20.966;2023-08-31T00:25:46;7.20;;;4.93;;
16890;SDS011;8562;52.246;20.966;2023-08-31T00:28:13;7.47;;;4.73;;
16890;SDS011;8562;52.246;20.966;2023-08-31T00:30:40;5.17;;;4.43;;
16890;SDS011;8562;52.246;20.966;2023-08-31T00:33:07;7.00;;;4.73;;
16890;SDS011;8562;52.246;20.966;2023-08-31T00:35:33;6.10;;;4.40;;
16890;SDS011;8562;52.246;20.966;2023-08-31T00:37:58;7.10;;;4.13;;
16890;SDS011;8562;52.246;20.966;2023-08-31T00:40:24;8.00;;;4.50;;
16890;SDS011;8562;52.246;20.966;2023-08-31T00:42:50;5.30;;;4.57;;
16890;SDS011;8562;52.246;20.966;2023-08-31T00:45:15;6.67;;;4.30;;
16890;SDS011;8562;52.246;20.966;2023-08-31T00:47:41;7.37;;;4.73;;
16890;SDS011;8562;52.246;20.966;2023-08-31T00:50:07;6.33;;;4.77;;
16890;SDS011;8562;52.246;20.966;2023-08-31T00:52:33;5.23;;;4.43;;
16890;SDS011;8562;52.246;20.966;2023-08-31T00:54:59;6.00;;;4.23;;
16890;SDS011;8562;52.246;20.966;2023-08-31T00:57:26;5.43;;;4.13;;
16890;SDS011;8562;52.246;20.966;2023-08-31T00:59:52;7.03;;;4.90;;
16890;SDS011;8562;52.246;20.966;2023-08-31T01:04:59;4.93;;;4.43;;
16890;SDS011;8562;52.246;20.966;2023-08-31T01:09:57;5.17;;;3.77;;
16890;SDS011;8562;52.246;20.966;2023-08-31T01:12:31;7.43;;;4.60;;
16890;SDS011;8562;52.246;20.966;2023-08-31T01:15:02;5.13;;;4.10;;
16890;SDS011;8562;52.246;20.966;2023-08-31T01:17:29;5.37;;;3.70;;
16890;SDS011;8562;52.246;20.966;2023-08-31T01:19:57;4.30;;;3.90;;
16890;SDS011;8562;52.246;20.966;2023-08-31T01:22:39;4.13;;;3.73;;
16890;SDS011;8562;52.246;20.966;2023-08-31T01:25:07;6.90;;;4.03;;
16890;SDS011;8562;52.246;20.966;2023-08-31T01:27:34;5.97;;;4.93;;
16890;SDS011;8562;52.246;20.966;2023-08-31T01:30:00;4.97;;;4.30;;
16890;SDS011;8562;52.246;20.966;2023-08-31T01:32:25;5.50;;;4.07;;
16890;SDS011;8562;52.246;20.966;2023-08-31T01:34:51;6.33;;;4.00;;
16890;SDS011;8562;52.246;20.966;2023-08-31T01:37:30;5.30;;;3.93;;
16890;SDS011;8562;52.246;20.966;2023-08-31T01:39:58;7.20;;;3.47;;
16890;SDS011;8562;52.246;20.966;2023-08-31T01:42:24;5.53;;;4.03;;
16890;SDS011;8562;52.246;20.966;2023-08-31T01:44:51;4.60;;;3.70;;
16890;SDS011;8562;52.246;20.966;2023-08-31T01:47:17;6.70;;;4.13;;
16890;SDS011;8562;52.246;20.966;2023-08-31T01:49:44;6.00;;;3.77;;
16890;SDS011;8562;52.246;20.966;2023-08-31T01:52:10;6.83;;;4.00;;
16890;SDS011;8562;52.246;20.966;2023-08-31T01:54:35;6.33;;;3.90;;
16890;SDS011;8562;52.246;20.966;2023-08-31T01:57:02;3.80;;;3.37;;
16890;SDS011;8562;52.246;20.966;2023-08-31T01:59:28;4.10;;;3.70;;
16890;SDS011;8562;52.246;20.966;2023-08-31T02:01:53;5.10;;;3.93;;
16890;SDS011;8562;52.246;20.966;2023-08-31T02:04:19;3.63;;;3.30;;
16890;SDS011;8562;52.246;20.966;2023-08-31T02:06:44;5.97;;;4.03;;
16890;SDS011;8562;52.246;20.966;2023-08-31T02:09:10;4.37;;;3.97;;
16890;SDS011;8562;52.246;20.966;2023-08-31T02:11:35;4.97;;;4.03;;
16890;SDS011;8562;52.246;20.966;2023-08-31T02:14:05;4.80;;;4.33;;
16890;SDS011;8562;52.246;20.966;2023-08-31T02:16:31;4.73;;;4.07;;
16890;SDS011;8562;52.246;20.966;2023-08-31T02:18:56;4.60;;;4.10;;
16890;SDS011;8562;52.246;20.966;2023-08-31T02:21:22;4.60;;;4.20;;
16890;SDS011;8562;52.246;20.966;2023-08-31T02:23:51;4.77;;;4.17;;
16890;SDS011;8562;52.246;20.966;2023-08-31T02:26:17;5.23;;;4.00;;
16890;SDS011;8562;52.246;20.966;2023-08-31T02:28:45;4.97;;;4.43;;
16890;SDS011;8562;52.246;20.966;2023-08-31T02:31:10;5.57;;;4.50;;
16890;SDS011;8562;52.246;20.966;2023-08-31T02:33:37;4.27;;;3.87;;
16890;SDS011;8562;52.246;20.966;2023-08-31T02:36:02;4.33;;;3.90;;
16890;SDS011;8562;52.246;20.966;2023-08-31T02:38:27;5.63;;;5.03;;
16890;SDS011;8562;52.246;20.966;2023-08-31T02:40:53;5.07;;;4.30;;
16890;SDS011;8562;52.246;20.966;2023-08-31T02:43:18;5.47;;;4.43;;
16890;SDS011;8562;52.246;20.966;2023-08-31T02:45:43;4.27;;;3.87;;
16890;SDS011;8562;52.246;20.966;2023-08-31T02:48:09;7.20;;;4.17;;
16890;SDS011;8562;52.246;20.966;2023-08-31T02:50:35;6.00;;;4.20;;
16890;SDS011;8562;52.246;20.966;2023-08-31T02:53:00;4.80;;;4.33;;
16890;SDS011;8562;52.246;20.966;2023-08-31T02:55:26;7.70;;;4.50;;
16890;SDS011;8562;52.246;20.966;2023-08-31T02:57:51;4.97;;;4.23;;
16890;SDS011;8562;52.246;20.966;2023-08-31T03:00:17;4.93;;;3.80;;
16890;SDS011;8562;52.246;20.966;2023-08-31T03:02:49;8.13;;;3.67;;
16890;SDS011;8562;52.246;20.966;2023-08-31T03:05:18;4.47;;;4.07;;
16890;SDS011;8562;52.246;20.966;2023-08-31T03:07:44;4.83;;;4.33;;
16890;SDS011;8562;52.246;20.966;2023-08-31T03:10:09;5.10;;;3.80;;
16890;SDS011;8562;52.246;20.966;2023-08-31T03:12:35;5.23;;;4.20;;
16890;SDS011;8562;52.246;20.966;2023-08-31T03:15:01;4.33;;;3.73;;
16890;SDS011;8562;52.246;20.966;2023-08-31T03:17:26;4.67;;;3.63;;
16890;SDS011;8562;52.246;20.966;2023-08-31T03:19:51;4.73;;;4.23;;
16890;SDS011;8562;52.246;20.966;2023-08-31T03:22:17;4.50;;;3.77;;
16890;SDS011;8562;52.246;20.966;2023-08-31T03:24:42;4.77;;;3.60;;
16890;SDS011;8562;52.246;20.966;2023-08-31T03:27:08;5.43;;;3.13;;
16890;SDS011;8562;52.246;20.966;2023-08-31T03:29:33;4.63;;;3.70;;
16890;SDS011;8562;52.246;20.966;2023-08-31T03:31:59;4.93;;;4.00;;
16890;SDS011;8562;52.246;20.966;2023-08-31T03:34:29;4.67;;;3.50;;
16890;SDS011;8562;52.246;20.966;2023-08-31T03:36:55;4.30;;;3.40;;
16890;SDS011;8562;52.246;20.966;2023-08-31T03:39:20;4.17;;;3.77;;
16890;SDS011;8562;52.246;20.966;2023-08-31T03:41:46;3.40;;;3.10;;
16890;SDS011;8562;52.246;20.966;2023-08-31T03:44:11;5.17;;;3.50;;
16890;SDS011;8562;52.246;20.966;2023-08-31T03:46:36;6.60;;;4.57;;
16890;SDS011;8562;52.246;20.966;2023-08-31T03:49:02;4.17;;;3.17;;
16890;SDS011;8562;52.246;20.966;2023-08-31T03:51:28;3.97;;;3.10;;
16890;SDS011;8562;52.246;20.966;2023-08-31T03:53:54;4.73;;;3.23;;
16890;SDS011;8562;52.246;20.966;2023-08-31T03:56:22;3.63;;;2.87;;
16890;SDS011;8562;52.246;20.966;2023-08-31T03:58:47;7.50;;;3.50;;
16890;SDS011;8562;52.246;20.966;2023-08-31T04:01:13;3.47;;;3.20;;
16890;SDS011;8562;52.246;20.966;2023-08-31T04:03:42;5.70;;;3.87;;
16890;SDS011;8562;52.246;20.966;2023-08-31T04:06:07;5.93;;;3.43;;
16890;SDS011;8562;52.246;20.966;2023-08-31T04:08:33;3.30;;;2.57;;
16890;SDS011;8562;52.246;20.966;2023-08-31T04:11:02;3.30;;;2.97;;
16890;SDS011;8562;52.246;20.966;2023-08-31T04:13:28;3.67;;;3.30;;
16890;SDS011;8562;52.246;20.966;2023-08-31T04:15:53;5.20;;;3.43;;
16890;SDS011;8562;52.246;20.966;2023-08-31T04:18:19;3.77;;;3.30;;
16890;SDS011;8562;52.246;20.966;2023-08-31T04:20:52;3.10;;;2.80;;
16890;SDS011;8562;52.246;20.966;2023-08-31T04:23:20;3.63;;;2.90;;
16890;SDS011;8562;52.246;20.966;2023-08-31T04:25:46;3.43;;;2.70;;
16890;SDS011;8562;52.246;20.966;2023-08-31T04:28:12;4.20;;;3.07;;
16890;SDS011;8562;52.246;20.966;2023-08-31T04:30:38;2.77;;;2.07;;
16890;SDS011;8562;52.246;20.966;2023-08-31T04:33:04;3.53;;;2.33;;
16890;SDS011;8562;52.246;20.966;2023-08-31T04:35:30;3.00;;;2.50;;
16890;SDS011;8562;52.246;20.966;2023-08-31T04:37:56;3.47;;;3.13;;
16890;SDS011;8562;52.246;20.966;2023-08-31T04:40:22;2.90;;;2.57;;
16890;SDS011;8562;52.246;20.966;2023-08-31T04:42:47;2.40;;;2.20;;
16890;SDS011;8562;52.246;20.966;2023-08-31T04:45:12;3.30;;;2.43;;
16890;SDS011;8562;52.246;20.966;2023-08-31T04:47:38;3.97;;;2.60;;
16890;SDS011;8562;52.246;20.966;2023-08-31T04:50:03;3.20;;;2.23;;
16890;SDS011;8562;52.246;20.966;2023-08-31T04:52:31;5.43;;;2.97;;
16890;SDS011;8562;52.246;20.966;2023-08-31T04:54:56;3.00;;;2.33;;
16890;SDS011;8562;52.246;20.966;2023-08-31T04:57:22;2.90;;;2.33;;
16890;SDS011;8562;52.246;20.966;2023-08-31T04:59:48;5.30;;;2.73;;
16890;SDS011;8562;52.246;20.966;2023-08-31T05:02:14;3.57;;;2.90;;
16890;SDS011;8562;52.246;20.966;2023-08-31T05:04:39;3.13;;;2.83;;
16890;SDS011;8562;52.246;20.966;2023-08-31T05:07:04;4.80;;;3.13;;
16890;SDS011;8562;52.246;20.966;2023-08-31T05:09:30;2.47;;;2.27;;
16890;SDS011;8562;52.246;20.966;2023-08-31T05:12:00;2.50;;;2.17;;
16890;SDS011;8562;52.246;20.966;2023-08-31T05:14:25;3.23;;;2.47;;
16890;SDS011;8562;52.246;20.966;2023-08-31T05:16:50;2.53;;;2.33;;
16890;SDS011;8562;52.246;20.966;2023-08-31T05:19:16;2.70;;;2.30;;
16890;SDS011;8562;52.246;20.966;2023-08-31T05:21:41;2.43;;;2.13;;
16890;SDS011;8562;52.246;20.966;2023-08-31T05:24:07;1.87;;;1.77;;
16890;SDS011;8562;52.246;20.966;2023-08-31T05:26:32;1.70;;;1.60;;
16890;SDS011;8562;52.246;20.966;2023-08-31T05:28:58;2.90;;;1.87;;
16890;SDS011;8562;52.246;20.966;2023-08-31T05:31:24;2.87;;;1.40;;
16890;SDS011;8562;52.246;20.966;2023-08-31T05:33:49;2.30;;;1.10;;
16890;SDS011;8562;52.246;20.966;2023-08-31T05:36:14;1.47;;;1.10;;
16890;SDS011;8562;52.246;20.966;2023-08-31T05:38:40;1.73;;;1.20;;
16890;SDS011;8562;52.246;20.966;2023-08-31T05:41:06;2.47;;;1.20;;
16890;SDS011;8562;52.246;20.966;2023-08-31T05:43:32;0.90;;;0.90;;
16890;SDS011;8562;52.246;20.966;2023-08-31T05:45:57;1.50;;;1.07;;
16890;SDS011;8562;52.246;20.966;2023-08-31T05:48:22;3.20;;;1.10;;
16890;SDS011;8562;52.246;20.966;2023-08-31T05:50:48;1.63;;;1.40;;
16890;SDS011;8562;52.246;20.966;2023-08-31T05:53:14;3.43;;;0.90;;
16890;SDS011;8562;52.246;20.966;2023-08-31T05:55:39;2.50;;;1.30;;
16890;SDS011;8562;52.246;20.966;2023-08-31T05:58:04;1.53;;;1.03;;
16890;SDS011;8562;52.246;20.966;2023-08-31T06:00:29;1.50;;;1.40;;
16890;SDS011;8562;52.246;20.966;2023-08-31T06:02:55;1.60;;;0.97;;
16890;SDS011;8562;52.246;20.966;2023-08-31T06:05:20;1.63;;;1.10;;
16890;SDS011;8562;52.246;20.966;2023-08-31T06:07:46;1.10;;;1.00;;
16890;SDS011;8562;52.246;20.966;2023-08-31T06:10:11;1.13;;;1.00;;
16890;SDS011;8562;52.246;20.966;2023-08-31T06:12:36;1.73;;;1.20;;
16890;SDS011;8562;52.246;20.966;2023-08-31T06:15:02;1.30;;;1.10;;
16890;SDS011;8562;52.246;20.966;2023-08-31T06:17:28;2.00;;;1.30;;
16890;SDS011;8562;52.246;20.966;2023-08-31T06:19:53;1.67;;;1.43;;
16890;SDS011;8562;52.246;20.966;2023-08-31T06:22:18;2.30;;;2.03;;
16890;SDS011;8562;52.246;20.966;2023-08-31T06:24:44;1.50;;;1.30;;
16890;SDS011;8562;52.246;20.966;2023-08-31T06:27:10;1.37;;;1.13;;
16890;SDS011;8562;52.246;20.966;2023-08-31T06:29:37;1.47;;;1.17;;
16890;SDS011;8562;52.246;20.966;2023-08-31T06:32:03;1.70;;;1.50;;
16890;SDS011;8562;52.246;20.966;2023-08-31T06:34:28;1.60;;;1.20;;
16890;SDS011;8562;52.246;20.966;2023-08-31T06:36:53;1.20;;;1.10;;
16890;SDS011;8562;52.246;20.966;2023-08-31T06:39:19;2.13;;;1.20;;
16890;SDS011;8562;52.246;20.966;2023-08-31T06:41:44;3.00;;;1.27;;
16890;SDS011;8562;52.246;20.966;2023-08-31T06:44:09;1.80;;;1.20;;
16890;SDS011;8562;52.246;20.966;2023-08-31T06:46:35;0.87;;;0.80;;
16890;SDS011;8562;52.246;20.966;2023-08-31T06:49:03;0.97;;;0.93;;
16890;SDS011;8562;52.246;20.966;2023-08-31T06:51:30;2.17;;;1.27;;
16890;SDS011;8562;52.246;20.966;2023-08-31T06:53:55;1.70;;;1.03;;
16890;SDS011;8562;52.246;20.966;2023-08-31T06:56:20;1.50;;;1.20;;
16890;SDS011;8562;52.246;20.966;2023-08-31T06:58:46;1.20;;;0.87;;
16890;SDS011;8562;52.246;20.966;2023-08-31T07:01:12;5.00;;;1.70;;
16890;SDS011;8562;52.246;20.966;2023-08-31T07:03:38;1.50;;;1.40;;
16890;SDS011;8562;52.246;20.966;2023-08-31T07:06:03;2.27;;;1.33;;
16890;SDS011;8562;52.246;20.966;2023-08-31T07:08:28;1.40;;;1.10;;
16890;SDS011;8562;52.246;20.966;2023-08-31T07:10:55;1.00;;;0.90;;
16890;SDS011;8562;52.246;20.966;2023-08-31T07:13:20;3.70;;;1.67;;
16890;SDS011;8562;52.246;20.966;2023-08-31T07:15:46;1.97;;;1.40;;
16890;SDS011;8562;52.246;20.966;2023-08-31T07:18:13;1.97;;;1.20;;
16890;SDS011;8562;52.246;20.966;2023-08-31T07:20:38;4.67;;;1.53;;
16890;SDS011;8562;52.246;20.966;2023-08-31T07:23:04;2.10;;;1.43;;
16890;SDS011;8562;52.246;20.966;2023-08-31T07:25:29;3.77;;;1.93;;
16890;SDS011;8562;52.246;20.966;2023-08-31T07:27:54;2.07;;;1.87;;
16890;SDS011;8562;52.246;20.966;2023-08-31T07:30:20;1.43;;;1.33;;
16890;SDS011;8562;52.246;20.966;2023-08-31T07:32:45;1.40;;;1.27;;
16890;SDS011;8562;52.246;20.966;2023-08-31T07:35:10;1.70;;;1.30;;
16890;SDS011;8562;52.246;20.966;2023-08-31T07:37:36;2.97;;;1.57;;
16890;SDS011;8562;52.246;20.966;2023-08-31T07:40:02;3.40;;;1.73;;
16890;SDS011;8562;52.246;20.966;2023-08-31T07:42:28;3.23;;;1.53;;
16890;SDS011;8562;52.246;20.966;2023-08-31T07:44:54;3.53;;;1.37;;
16890;SDS011;8562;52.246;20.966;2023-08-31T07:47:19;4.87;;;1.53;;
16890;SDS011;8562;52.246;20.966;2023-08-31T07:49:45;1.77;;;1.20;;
16890;SDS011;8562;52.246;20.966;2023-08-31T07:52:10;3.03;;;1.20;;
16890;SDS011;8562;52.246;20.966;2023-08-31T07:54:35;3.03;;;1.80;;
16890;SDS011;8562;52.246;20.966;2023-08-31T07:57:01;2.50;;;1.40;;
16890;SDS011;8562;52.246;20.966;2023-08-31T07:59:26;2.50;;;1.73;;
16890;SDS011;8562;52.246;20.966;2023-08-31T08:01:52;2.23;;;1.17;;
16890;SDS011;8562;52.246;20.966;2023-08-31T08:04:18;3.07;;;1.33;;
16890;SDS011;8562;52.246;20.966;2023-08-31T08:06:44;1.93;;;1.00;;
16890;SDS011;8562;52.246;20.966;2023-08-31T08:09:09;4.23;;;0.90;;
16890;SDS011;8562;52.246;20.966;2023-08-31T08:11:35;1.23;;;1.10;;
16890;SDS011;8562;52.246;20.966;2023-08-31T08:14:00;1.63;;;0.93;;
16890;SDS011;8562;52.246;20.966;2023-08-31T08:16:26;1.30;;;1.17;;
16890;SDS011;8562;52.246;20.966;2023-08-31T08:18:51;1.00;;;0.90;;
16890;SDS011;8562;52.246;20.966;2023-08-31T08:21:17;1.77;;;0.90;;
16890;SDS011;8562;52.246;20.966;2023-08-31T08:23:42;0.70;;;0.70;;
16890;SDS011;8562;52.246;20.966;2023-08-31T08:26:08;0.70;;;0.67;;
16890;SDS011;8562;52.246;20.966;2023-08-31T08:28:33;0.77;;;0.77;;
16890;SDS011;8562;52.246;20.966;2023-08-31T08:31:01;1.03;;;0.97;;
16890;SDS011;8562;52.246;20.966;2023-08-31T08:33:26;0.90;;;0.70;;
16890;SDS011;8562;52.246;20.966;2023-08-31T08:35:55;1.37;;;1.27;;
16890;SDS011;8562;52.246;20.966;2023-08-31T08:38:20;2.33;;;0.70;;
16890;SDS011;8562;52.246;20.966;2023-08-31T08:40:47;2.63;;;1.17;;
16890;SDS011;8562;52.246;20.966;2023-08-31T08:43:12;3.70;;;0.87;;
16890;SDS011;8562;52.246;20.966;2023-08-31T08:45:39;2.33;;;0.90;;
16890;SDS011;8562;52.246;20.966;2023-08-31T08:48:07;1.40;;;0.93;;
16890;SDS011;8562;52.246;20.966;2023-08-31T08:50:33;1.63;;;1.20;;
16890;SDS011;8562;52.246;20.966;2023-08-31T08:52:59;1.77;;;1.10;;
16890;SDS011;8562;52.246;20.966;2023-08-31T08:55:24;1.23;;;0.83;;
16890;SDS011;8562;52.246;20.966;2023-08-31T08:57:50;1.50;;;1.30;;
16890;SDS011;8562;52.246;20.966;2023-08-31T09:00:15;1.00;;;0.90;;
16890;SDS011;8562;52.246;20.966;2023-08-31T09:02:41;1.10;;;0.97;;
16890;SDS011;8562;52.246;20.966;2023-08-31T09:05:06;1.73;;;1.27;;
16890;SDS011;8562;52.246;20.966;2023-08-31T09:07:34;2.67;;;1.23;;
16890;SDS011;8562;52.246;20.966;2023-08-31T09:10:00;2.60;;;1.53;;
16890;SDS011;8562;52.246;20.966;2023-08-31T09:12:26;2.17;;;1.50;;
16890;SDS011;8562;52.246;20.966;2023-08-31T09:17:23;4.47;;;1.87;;
16890;SDS011;8562;52.246;20.966;2023-08-31T09:20:00;3.70;;;1.60;;
16890;SDS011;8562;52.246;20.966;2023-08-31T09:22:26;2.33;;;1.87;;
16890;SDS011;8562;52.246;20.966;2023-08-31T09:24:51;1.93;;;1.37;;
16890;SDS011;8562;52.246;20.966;2023-08-31T09:27:17;2.90;;;1.60;;
16890;SDS011;8562;52.246;20.966;2023-08-31T09:29:45;1.80;;;1.50;;
16890;SDS011;8562;52.246;20.966;2023-08-31T09:32:15;1.57;;;1.20;;
16890;SDS011;8562;52.246;20.966;2023-08-31T09:34:41;2.20;;;1.30;;
16890;SDS011;8562;52.246;20.966;2023-08-31T09:37:07;2.20;;;1.40;;
16890;SDS011;8562;52.246;20.966;2023-08-31T09:39:37;2.23;;;1.57;;
16890;SDS011;8562;52.246;20.966;2023-08-31T09:42:04;1.27;;;1.17;;
16890;SDS011;8562;52.246;20.966;2023-08-31T09:44:29;1.23;;;0.90;;
16890;SDS011;8562;52.246;20.966;2023-08-31T09:46:54;1.63;;;1.03;;
16890;SDS011;8562;52.246;20.966;2023-08-31T09:49:20;1.67;;;1.10;;
16890;SDS011;8562;52.246;20.966;2023-08-31T09:51:46;1.13;;;0.90;;
16890;SDS011;8562;52.246;20.966;2023-08-31T09:54:13;1.50;;;1.40;;
16890;SDS011;8562;52.246;20.966;2023-08-31T09:56:38;1.60;;;1.20;;
16890;SDS011;8562;52.246;20.966;2023-08-31T09:59:05;2.00;;;1.50;;
16890;SDS011;8562;52.246;20.966;2023-08-31T10:01:30;1.40;;;0.93;;
16890;SDS011;8562;52.246;20.966;2023-08-31T10:03:56;1.17;;;1.00;;
16890;SDS011;8562;52.246;20.966;2023-08-31T10:06:21;1.87;;;0.93;;
16890;SDS011;8562;52.246;20.966;2023-08-31T10:08:47;1.50;;;1.20;;
16890;SDS011;8562;52.246;20.966;2023-08-31T10:11:13;1.30;;;1.20;;
16890;SDS011;8562;52.246;20.966;2023-08-31T10:13:40;1.10;;;1.00;;
16890;SDS011;8562;52.246;20.966;2023-08-31T10:16:06;2.33;;;1.30;;
16890;SDS011;8562;52.246;20.966;2023-08-31T10:18:32;1.70;;;1.20;;
16890;SDS011;8562;52.246;20.966;2023-08-31T10:20:59;1.93;;;1.40;;
16890;SDS011;8562;52.246;20.966;2023-08-31T10:23:24;1.50;;;1.40;;
16890;SDS011;8562;52.246;20.966;2023-08-31T10:28:18;2.00;;;1.20;;
16890;SDS011;8562;52.246;20.966;2023-08-31T10:30:59;1.63;;;1.33;;
16890;SDS011;8562;52.246;20.966;2023-08-31T10:33:25;2.00;;;1.90;;
16890;SDS011;8562;52.246;20.966;2023-08-31T10:35:51;2.03;;;1.53;;
16890;SDS011;8562;52.246;20.966;2023-08-31T10:38:23;2.77;;;1.40;;
16890;SDS011;8562;52.246;20.966;2023-08-31T10:41:32;1.70;;;1.60;;
16890;SDS011;8562;52.246;20.966;2023-08-31T10:43:57;1.30;;;1.20;;
16890;SDS011;8562;52.246;20.966;2023-08-31T10:48:58;1.83;;;1.20;;
16890;SDS011;8562;52.246;20.966;2023-08-31T10:51:25;1.73;;;1.63;;
16890;SDS011;8562;52.246;20.966;2023-08-31T10:53:50;3.97;;;1.80;;
16890;SDS011;8562;52.246;20.966;2023-08-31T10:56:16;2.03;;;1.30;;
16890;SDS011;8562;52.246;20.966;2023-08-31T10:58:42;1.60;;;1.50;;
16890;SDS011;8562;52.246;20.966;2023-08-31T11:01:08;2.40;;;1.60;;
16890;SDS011;8562;52.246;20.966;2023-08-31T11:03:37;2.57;;;1.70;;
16890;SDS011;8562;52.246;20.966;2023-08-31T11:06:18;2.90;;;1.70;;
16890;SDS011;8562;52.246;20.966;2023-08-31T11:08:44;4.40;;;1.73;;
16890;SDS011;8562;52.246;20.966;2023-08-31T11:11:09;2.03;;;1.70;;
16890;SDS011;8562;52.246;20.966;2023-08-31T11:13:34;2.00;;;1.73;;
16890;SDS011;8562;52.246;20.966;2023-08-31T11:16:00;2.53;;;1.90;;
16890;SDS011;8562;52.246;20.966;2023-08-31T11:18:26;2.93;;;1.80;;
16890;SDS011;8562;52.246;20.966;2023-08-31T11:20:51;1.40;;;1.30;;
16890;SDS011;8562;52.246;20.966;2023-08-31T11:23:16;1.97;;;1.70;;
16890;SDS011;8562;52.246;20.966;2023-08-31T11:25:42;3.37;;;1.77;;
16890;SDS011;8562;52.246;20.966;2023-08-31T11:28:07;3.73;;;2.07;;
16890;SDS011;8562;52.246;20.966;2023-08-31T11:30:33;5.17;;;1.90;;
16890;SDS011;8562;52.246;20.966;2023-08-31T11:33:08;2.47;;;1.97;;
16890;SDS011;8562;52.246;20.966;2023-08-31T11:35:35;2.13;;;1.57;;
16890;SDS011;8562;52.246;20.966;2023-08-31T11:38:01;1.40;;;1.30;;
16890;SDS011;8562;52.246;20.966;2023-08-31T11:40:27;3.23;;;1.87;;
16890;SDS011;8562;52.246;20.966;2023-08-31T11:42:53;2.03;;;1.77;;
16890;SDS011;8562;52.246;20.966;2023-08-31T11:45:19;2.37;;;1.70;;
16890;SDS011;8562;52.246;20.966;2023-08-31T11:47:45;2.27;;;1.93;;
16890;SDS011;8562;52.246;20.966;2023-08-31T11:50:12;3.63;;;1.80;;
16890;SDS011;8562;52.246;20.966;2023-08-31T11:52:38;1.80;;;1.70;;
16890;SDS011;8562;52.246;20.966;2023-08-31T11:55:09;2.47;;;1.60;;
16890;SDS011;8562;52.246;20.966;2023-08-31T11:57:35;2.43;;;1.97;;
16890;SDS011;8562;52.246;20.966;2023-08-31T12:00:00;2.20;;;2.00;;
16890;SDS011;8562;52.246;20.966;2023-08-31T12:02:34;2.57;;;1.80;;
16890;SDS011;8562;52.246;20.966;2023-08-31T12:04:59;2.73;;;1.87;;
16890;SDS011;8562;52.246;20.966;2023-08-31T12:07:25;2.00;;;1.80;;
16890;SDS011;8562;52.246;20.966;2023-08-31T12:09:50;2.33;;;2.10;;
16890;SDS011;8562;52.246;20.966;2023-08-31T12:12:19;4.63;;;2.10;;
16890;SDS011;8562;52.246;20.966;2023-08-31T12:14:45;3.13;;;2.40;;
16890;SDS011;8562;52.246;20.966;2023-08-31T12:17:10;2.00;;;1.80;;
16890;SDS011;8562;52.246;20.966;2023-08-31T12:19:36;4.20;;;2.03;;
16890;SDS011;8562;52.246;20.966;2023-08-31T12:22:01;2.43;;;2.23;;
16890;SDS011;8562;52.246;20.966;2023-08-31T12:24:27;2.43;;;2.20;;
16890;SDS011;8562;52.246;20.966;2023-08-31T12:26:52;2.80;;;1.93;;
16890;SDS011;8562;52.246;20.966;2023-08-31T12:29:19;2.73;;;1.93;;
16890;SDS011;8562;52.246;20.966;2023-08-31T12:31:44;3.43;;;1.90;;
16890;SDS011;8562;52.246;20.966;2023-08-31T12:34:10;2.53;;;2.33;;
16890;SDS011;8562;52.246;20.966;2023-08-31T12:36:35;2.73;;;1.63;;
16890;SDS011;8562;52.246;20.966;2023-08-31T12:39:06;2.43;;;2.23;;
16890;SDS011;8562;52.246;20.966;2023-08-31T12:41:35;3.40;;;2.20;;
16890;SDS011;8562;52.246;20.966;2023-08-31T12:44:01;2.20;;;1.90;;
16890;SDS011;8562;52.246;20.966;2023-08-31T12:46:26;3.10;;;2.03;;
16890;SDS011;8562;52.246;20.966;2023-08-31T12:48:51;2.17;;;1.97;;
16890;SDS011;8562;52.246;20.966;2023-08-31T12:51:18;2.20;;;2.00;;
16890;SDS011;8562;52.246;20.966;2023-08-31T12:53:43;1.83;;;1.73;;
16890;SDS011;8562;52.246;20.966;2023-08-31T12:56:09;2.23;;;2.03;;
16890;SDS011;8562;52.246;20.966;2023-08-31T12:58:34;2.27;;;1.97;;
16890;SDS011;8562;52.246;20.966;2023-08-31T13:00:59;3.10;;;2.33;;
16890;SDS011;8562;52.246;20.966;2023-08-31T13:03:25;2.20;;;1.70;;
16890;SDS011;8562;52.246;20.966;2023-08-31T13:05:50;2.30;;;2.10;;
16890;SDS011;8562;52.246;20.966;2023-08-31T13:08:16;2.27;;;2.17;;
16890;SDS011;8562;52.246;20.966;2023-08-31T13:10:41;2.17;;;1.90;;
16890;SDS011;8562;52.246;20.966;2023-08-31T13:13:07;3.00;;;2.00;;
16890;SDS011;8562;52.246;20.966;2023-08-31T13:15:33;2.50;;;2.03;;
16890;SDS011;8562;52.246;20.966;2023-08-31T13:17:59;2.47;;;2.00;;
16890;SDS011;8562;52.246;20.966;2023-08-31T13:20:24;2.20;;;2.00;;
16890;SDS011;8562;52.246;20.966;2023-08-31T13:22:49;3.13;;;2.20;;
16890;SDS011;8562;52.246;20.966;2023-08-31T13:25:15;2.40;;;2.17;;
16890;SDS011;8562;52.246;20.966;2023-08-31T13:27:40;2.20;;;1.97;;
16890;SDS011;8562;52.246;20.966;2023-08-31T13:30:06;1.90;;;1.77;;
16890;SDS011;8562;52.246;20.966;2023-08-31T13:32:32;2.63;;;1.90;;
16890;SDS011;8562;52.246;20.966;2023-08-31T13:34:58;2.23;;;1.97;;
16890;SDS011;8562;52.246;20.966;2023-08-31T13:37:23;2.87;;;2.20;;
16890;SDS011;8562;52.246;20.966;2023-08-31T13:39:49;2.20;;;2.00;;
16890;SDS011;8562;52.246;20.966;2023-08-31T13:42:15;1.83;;;1.70;;
16890;SDS011;8562;52.246;20.966;2023-08-31T13:44:40;3.03;;;2.17;;
16890;SDS011;8562;52.246;20.966;2023-08-31T13:47:05;2.57;;;2.37;;
16890;SDS011;8562;52.246;20.966;2023-08-31T13:49:31;2.97;;;2.17;;
16890;SDS011;8562;52.246;20.966;2023-08-31T13:51:56;3.30;;;2.33;;
16890;SDS011;8562;52.246;20.966;2023-08-31T13:54:22;2.13;;;1.93;;
16890;SDS011;8562;52.246;20.966;2023-08-31T13:56:47;4.77;;;2.77;;
16890;SDS011;8562;52.246;20.966;2023-08-31T13:59:15;3.37;;;2.30;;
16890;SDS011;8562;52.246;20.966;2023-08-31T14:01:40;6.77;;;2.40;;
16890;SDS011;8562;52.246;20.966;2023-08-31T14:04:05;3.57;;;2.53;;
16890;SDS011;8562;52.246;20.966;2023-08-31T14:06:31;3.63;;;2.57;;
16890;SDS011;8562;52.246;20.966;2023-08-31T14:08:56;4.93;;;2.87;;
16890;SDS011;8562;52.246;20.966;2023-08-31T14:11:21;3.33;;;2.33;;
16890;SDS011;8562;52.246;20.966;2023-08-31T14:13:47;3.17;;;2.33;;
16890;SDS011;8562;52.246;20.966;2023-08-31T14:16:12;2.97;;;2.50;;
16890;SDS011;8562;52.246;20.966;2023-08-31T14:18:38;3.10;;;2.57;;
16890;SDS011;8562;52.246;20.966;2023-08-31T14:21:03;2.97;;;2.57;;
16890;SDS011;8562;52.246;20.966;2023-08-31T14:23:29;3.43;;;2.50;;
16890;SDS011;8562;52.246;20.966;2023-08-31T14:25:54;2.37;;;2.17;;
16890;SDS011;8562;52.246;20.966;2023-08-31T14:28:25;4.90;;;2.17;;
16890;SDS011;8562;52.246;20.966;2023-08-31T14:30:50;2.83;;;2.33;;
16890;SDS011;8562;52.246;20.966;2023-08-31T14:33:16;3.47;;;2.60;;
16890;SDS011;8562;52.246;20.966;2023-08-31T14:35:41;2.77;;;2.47;;
16890;SDS011;8562;52.246;20.966;2023-08-31T14:38:06;3.50;;;2.50;;
16890;SDS011;8562;52.246;20.966;2023-08-31T14:40:32;3.87;;;2.57;;
16890;SDS011;8562;52.246;20.966;2023-08-31T14:42:59;2.70;;;2.50;;
16890;SDS011;8562;52.246;20.966;2023-08-31T14:45:25;2.60;;;2.40;;
16890;SDS011;8562;52.246;20.966;2023-08-31T14:47:50;2.90;;;2.57;;
16890;SDS011;8562;52.246;20.966;2023-08-31T14:50:16;5.27;;;2.87;;
16890;SDS011;8562;52.246;20.966;2023-08-31T14:52:41;3.50;;;3.20;;
16890;SDS011;8562;52.246;20.966;2023-08-31T14:55:06;8.03;;;3.63;;